createdAt,value
2022-08-03T00:00:43.913Z,7.20
2022-08-03T00:01:43.903Z,7.10
2022-08-03T00:02:43.934Z,7.70
2022-08-03T00:03:43.890Z,8.30
2022-08-03T00:04:44.155Z,7.80
2022-08-03T00:06:03.948Z,8.30
2022-08-03T00:06:44.864Z,7.70
2022-08-03T00:07:43.812Z,8.40
2022-08-03T00:08:43.809Z,7.70
2022-08-03T00:09:44.184Z,7.60
2022-08-03T00:10:43.762Z,8.60
2022-08-03T00:11:43.753Z,7.80
2022-08-03T00:12:43.767Z,8.50
2022-08-03T00:13:43.754Z,7.40
2022-08-03T00:14:44.223Z,8.30
2022-08-03T00:15:44.082Z,7.60
2022-08-03T00:16:43.688Z,7.70
2022-08-03T00:17:53.029Z,7.40
2022-08-03T00:18:44.689Z,8.40
2022-08-03T00:19:43.908Z,8.90
2022-08-03T00:20:43.640Z,7.90
2022-08-03T00:21:43.972Z,8.20
2022-08-03T00:22:43.670Z,8.40
2022-08-03T00:23:51.455Z,9.60
2022-08-03T00:24:45.148Z,9.00
2022-08-03T00:25:43.583Z,8.30
2022-08-03T00:26:44.001Z,8.00
2022-08-03T00:27:43.583Z,7.60
2022-08-03T00:28:43.606Z,8.40
2022-08-03T00:29:59.391Z,7.50
2022-08-03T00:30:44.528Z,8.90
2022-08-03T00:31:52.393Z,7.70
2022-08-03T00:32:45.320Z,7.90
2022-08-03T00:33:59.469Z,7.60
2022-08-03T00:34:58.590Z,8.40
2022-08-03T00:35:50.373Z,8.40
2022-08-03T00:36:44.765Z,8.70
2022-08-03T00:37:43.389Z,7.50
2022-08-03T00:38:43.454Z,7.70
2022-08-03T00:39:43.417Z,28.40
2022-08-03T00:40:43.378Z,85.40
2022-08-03T00:41:43.448Z,89.00
2022-08-03T00:42:43.776Z,67.50
2022-08-03T00:43:43.386Z,161.90
2022-08-03T00:44:43.367Z,164.30
2022-08-03T00:45:43.287Z,171.20
2022-08-03T00:46:43.286Z,49.60
2022-08-03T00:47:43.695Z,13.30
2022-08-03T00:48:45.027Z,11.70
2022-08-03T00:49:43.256Z,9.70
2022-08-03T00:50:43.224Z,9.10
2022-08-03T00:51:43.234Z,7.80
2022-08-03T00:52:43.224Z,8.80
2022-08-03T00:53:43.965Z,8.50
2022-08-03T00:54:44.287Z,7.50
2022-08-03T00:55:43.166Z,7.20
2022-08-03T00:57:00.213Z,8.00
2022-08-03T00:57:44.125Z,7.70
2022-08-03T00:58:43.475Z,7.00
2022-08-03T00:59:43.106Z,7.20
2022-08-03T01:00:43.111Z,7.20
2022-08-03T01:01:43.151Z,8.20
2022-08-03T01:02:43.071Z,7.40
2022-08-03T01:03:43.474Z,8.70
2022-08-03T01:04:43.141Z,7.60
2022-08-03T01:05:43.054Z,9.70
2022-08-03T01:06:43.022Z,8.20
2022-08-03T01:07:43.264Z,7.00
2022-08-03T01:08:43.203Z,9.00
2022-08-03T01:09:43.015Z,6.80
2022-08-03T01:10:43.069Z,7.80
2022-08-03T01:12:00.742Z,7.00
2022-08-03T01:12:44.365Z,6.00
2022-08-03T01:14:03.435Z,6.10
2022-08-03T01:14:43.911Z,7.10
2022-08-03T01:15:42.921Z,6.60
2022-08-03T01:16:42.893Z,8.70
2022-08-03T01:17:43.092Z,5.70
2022-08-03T01:18:42.894Z,6.70
2022-08-03T01:19:42.874Z,8.10
2022-08-03T01:20:42.848Z,7.00
2022-08-03T01:21:42.832Z,6.20
2022-08-03T01:22:43.002Z,7.30
2022-08-03T01:23:42.782Z,6.10
2022-08-03T01:24:42.789Z,6.50
2022-08-03T01:25:42.770Z,5.90
2022-08-03T01:26:42.778Z,6.30
2022-08-03T01:27:42.979Z,7.00
2022-08-03T01:28:42.751Z,6.50
2022-08-03T01:29:49.891Z,8.60
2022-08-03T01:32:58.463Z,6.60
2022-08-03T01:33:06.822Z,6.70
2022-08-03T01:33:58.817Z,7.20
2022-08-03T01:35:05.953Z,7.70
2022-08-03T01:35:58.794Z,7.00
2022-08-03T01:36:58.772Z,9.10
2022-08-03T01:38:05.934Z,7.60
2022-08-03T01:39:07.239Z,7.40
2022-08-03T01:39:58.741Z,9.90
2022-08-03T01:40:58.765Z,8.40
2022-08-03T01:41:58.742Z,7.80
2022-08-03T01:42:58.721Z,9.10
2022-08-03T01:44:29.159Z,10.70
2022-08-03T01:45:00.004Z,10.00
2022-08-03T01:45:58.629Z,8.40
2022-08-03T01:46:58.632Z,8.60
2022-08-03T01:47:58.611Z,7.90
2022-08-03T01:48:58.718Z,8.40
2022-08-03T01:49:58.599Z,9.60
2022-08-03T01:50:59.901Z,8.30
2022-08-03T01:52:04.912Z,9.30
2022-08-03T01:52:59.551Z,8.30
2022-08-03T01:53:58.539Z,10.90
2022-08-03T01:54:58.559Z,8.10
2022-08-03T01:55:58.506Z,8.50
2022-08-03T01:56:58.923Z,8.50
2022-08-03T01:58:04.865Z,10.00
2022-08-03T01:59:01.130Z,7.60
2022-08-03T01:59:58.456Z,7.50
2022-08-03T02:00:58.893Z,7.70
2022-08-03T02:02:31.959Z,7.90
2022-08-03T02:02:59.420Z,9.10
2022-08-03T02:04:00.944Z,7.40
2022-08-03T02:04:58.390Z,8.00
2022-08-03T02:06:18.151Z,10.30
2022-08-03T02:07:03.118Z,7.70
2022-08-03T02:07:58.349Z,7.80
2022-08-03T02:08:58.339Z,7.40
2022-08-03T02:09:58.330Z,8.30
2022-08-03T02:10:58.700Z,7.50
2022-08-03T02:11:58.287Z,9.80
2022-08-03T02:12:58.277Z,7.90
2022-08-03T02:13:58.256Z,7.30
2022-08-03T02:15:00.024Z,8.10
2022-08-03T02:15:58.260Z,9.00
2022-08-03T02:16:58.602Z,7.90
2022-08-03T02:17:58.223Z,7.80
2022-08-03T02:18:58.204Z,7.90
2022-08-03T02:19:58.245Z,8.10
2022-08-03T02:20:58.625Z,8.00
2022-08-03T02:22:10.643Z,8.90
2022-08-03T02:22:59.167Z,8.20
2022-08-03T02:23:58.154Z,8.40
2022-08-03T02:24:58.514Z,8.40
2022-08-03T02:25:59.966Z,8.70
2022-08-03T02:26:58.577Z,8.10
2022-08-03T02:27:58.094Z,9.50
2022-08-03T02:28:58.075Z,8.80
2022-08-03T02:29:58.063Z,8.30
2022-08-03T02:30:58.051Z,8.30
2022-08-03T02:31:58.381Z,8.30
2022-08-03T02:32:58.045Z,8.40
2022-08-03T02:33:58.022Z,8.80
2022-08-03T02:34:57.997Z,8.00
2022-08-03T02:35:58.002Z,9.20
2022-08-03T02:36:57.962Z,10.20
2022-08-03T02:37:58.372Z,7.90
2022-08-03T02:38:57.954Z,7.40
2022-08-03T02:39:57.915Z,7.80
2022-08-03T02:40:57.960Z,7.90
2022-08-03T02:41:57.972Z,11.50
2022-08-03T02:42:58.298Z,7.80
2022-08-03T02:43:57.861Z,8.50
2022-08-03T02:44:58.861Z,8.10
2022-08-03T02:45:57.839Z,8.10
2022-08-03T02:46:57.865Z,8.10
2022-08-03T02:47:57.811Z,7.50
2022-08-03T02:48:58.206Z,7.90
2022-08-03T02:49:57.841Z,7.60
2022-08-03T02:50:57.769Z,7.70
2022-08-03T02:51:57.781Z,8.20
2022-08-03T02:52:57.757Z,7.90
2022-08-03T02:53:57.723Z,11.20
2022-08-03T02:54:58.075Z,8.30
2022-08-03T02:55:57.701Z,8.20
2022-08-03T02:56:57.669Z,8.50
2022-08-03T02:57:57.719Z,9.40
2022-08-03T02:58:57.663Z,8.70
2022-08-03T02:59:58.109Z,8.30
2022-08-03T03:00:57.721Z,8.70
2022-08-03T03:01:57.627Z,10.10
2022-08-03T03:02:57.622Z,8.30
2022-08-03T03:03:57.605Z,9.20
2022-08-03T03:05:51.765Z,9.10
2022-08-03T03:05:58.588Z,8.90
2022-08-03T03:06:57.558Z,8.10
2022-08-03T03:07:57.575Z,9.50
2022-08-03T03:08:59.761Z,10.10
2022-08-03T03:09:57.498Z,8.40
2022-08-03T03:10:57.968Z,8.10
2022-08-03T03:11:57.487Z,8.40
2022-08-03T03:12:57.487Z,9.10
2022-08-03T03:13:57.448Z,9.10
2022-08-03T03:14:59.480Z,8.10
2022-08-03T03:15:57.418Z,7.80
2022-08-03T03:16:57.688Z,8.40
2022-08-03T03:17:57.407Z,8.10
2022-08-03T03:18:57.432Z,8.30
2022-08-03T03:20:04.926Z,8.10
2022-08-03T03:21:05.509Z,9.50
2022-08-03T03:22:04.473Z,8.00
2022-08-03T03:23:04.507Z,11.80
2022-08-03T03:24:04.533Z,8.10
2022-08-03T03:25:04.415Z,9.00
2022-08-03T03:26:04.860Z,9.00
2022-08-03T03:27:04.418Z,8.50
2022-08-03T03:28:06.224Z,8.00
2022-08-03T03:29:04.396Z,12.30
2022-08-03T03:29:57.227Z,9.90
2022-08-03T03:30:57.233Z,10.40
2022-08-03T03:32:04.887Z,8.90
2022-08-03T03:32:57.224Z,9.40
2022-08-03T03:33:57.189Z,9.50
2022-08-03T03:35:04.290Z,9.00
2022-08-03T03:36:04.265Z,10.70
2022-08-03T03:37:05.869Z,11.30
2022-08-03T03:38:04.273Z,9.30
2022-08-03T03:39:15.968Z,9.30
2022-08-03T03:41:08.474Z,9.60
2022-08-03T03:42:08.835Z,9.50
2022-08-03T03:43:15.475Z,10.20
2022-08-03T03:44:17.411Z,9.10
2022-08-03T03:45:15.391Z,9.40
2022-08-03T03:46:15.412Z,9.50
2022-08-03T03:47:08.412Z,8.50
2022-08-03T03:48:08.779Z,9.30
2022-08-03T03:49:08.262Z,10.90
2022-08-03T03:50:08.274Z,11.10
2022-08-03T03:51:08.197Z,12.00
2022-08-03T03:52:08.199Z,9.70
2022-08-03T03:53:09.274Z,10.90
2022-08-03T03:54:08.809Z,9.20
2022-08-03T03:55:08.159Z,9.80
2022-08-03T03:56:08.159Z,10.50
2022-08-03T03:57:08.157Z,10.40
2022-08-03T03:58:08.136Z,9.30
2022-08-03T03:59:08.097Z,9.40
2022-08-03T04:00:09.166Z,9.20
2022-08-03T04:01:08.136Z,10.80
2022-08-03T04:02:08.067Z,10.50
2022-08-03T04:03:08.057Z,11.30
2022-08-03T04:04:08.065Z,14.10
2022-08-03T04:05:08.401Z,11.70
2022-08-03T04:06:08.095Z,10.30
2022-08-03T04:07:08.045Z,10.50
2022-08-03T04:08:07.978Z,11.40
2022-08-03T04:09:08.009Z,11.30
2022-08-03T04:10:14.104Z,9.50
2022-08-03T04:11:09.376Z,14.10
2022-08-03T04:12:07.916Z,11.00
2022-08-03T04:13:07.917Z,10.00
2022-08-03T04:14:07.896Z,9.20
2022-08-03T04:15:08.196Z,10.50
2022-08-03T04:16:07.882Z,10.10
2022-08-03T04:17:07.875Z,11.90
2022-08-03T04:18:07.865Z,11.20
2022-08-03T04:19:07.843Z,11.10
2022-08-03T04:20:07.854Z,10.70
2022-08-03T04:21:08.241Z,10.30
2022-08-03T04:22:07.793Z,11.40
2022-08-03T04:23:12.800Z,9.50
2022-08-03T04:24:08.783Z,12.60
2022-08-03T04:25:07.753Z,9.50
2022-08-03T04:26:07.754Z,10.90
2022-08-03T04:27:08.065Z,12.90
2022-08-03T04:28:30.652Z,10.50
2022-08-03T04:29:08.702Z,11.70
2022-08-03T04:30:07.717Z,9.50
2022-08-03T04:31:07.964Z,11.50
2022-08-03T04:32:07.694Z,11.00
2022-08-03T04:33:08.075Z,12.60
2022-08-03T04:34:07.634Z,10.70
2022-08-03T04:35:07.609Z,10.50
2022-08-03T04:36:07.632Z,8.60
2022-08-03T04:37:07.663Z,9.10
2022-08-03T04:38:07.710Z,10.70
2022-08-03T04:39:07.649Z,10.70
2022-08-03T04:40:07.560Z,12.20
2022-08-03T04:41:07.569Z,10.50
2022-08-03T04:42:17.150Z,9.70
2022-08-03T04:43:08.503Z,13.30
2022-08-03T04:44:09.190Z,10.20
2022-08-03T04:45:07.824Z,9.40
2022-08-03T04:46:07.482Z,10.20
2022-08-03T04:47:07.474Z,9.90
2022-08-03T04:48:07.461Z,10.00
2022-08-03T04:49:07.510Z,9.90
2022-08-03T04:50:12.169Z,10.70
2022-08-03T04:51:08.726Z,10.00
2022-08-03T04:52:07.404Z,12.40
2022-08-03T04:53:07.404Z,10.40
2022-08-03T04:54:07.369Z,13.20
2022-08-03T04:55:07.514Z,11.10
2022-08-03T04:56:07.395Z,8.90
2022-08-03T04:57:07.747Z,11.90
2022-08-03T04:58:07.319Z,10.20
2022-08-03T04:59:07.328Z,10.50
2022-08-03T05:00:07.309Z,10.30
2022-08-03T05:01:07.380Z,9.40
2022-08-03T05:02:07.406Z,9.30
2022-08-03T05:03:20.363Z,13.00
2022-08-03T05:04:08.251Z,10.90
2022-08-03T05:05:07.265Z,9.30
2022-08-03T05:06:11.142Z,9.30
2022-08-03T05:07:11.749Z,8.30
2022-08-03T05:08:11.203Z,9.80
2022-08-03T05:09:07.164Z,11.50
2022-08-03T05:10:14.701Z,14.00
2022-08-03T05:11:08.177Z,12.50
2022-08-03T05:12:07.136Z,11.10
2022-08-03T05:13:07.450Z,12.60
2022-08-03T05:14:07.126Z,17.70
2022-08-03T05:15:07.084Z,14.90
2022-08-03T05:16:07.076Z,12.00
2022-08-03T05:17:07.523Z,13.70
2022-08-03T05:18:13.677Z,13.90
2022-08-03T05:19:08.055Z,10.50
2022-08-03T05:20:07.064Z,12.20
2022-08-03T05:21:07.034Z,15.90
2022-08-03T05:22:07.456Z,15.20
2022-08-03T05:23:07.036Z,12.20
2022-08-03T05:24:06.991Z,14.00
2022-08-03T05:25:06.996Z,15.70
2022-08-03T05:26:06.962Z,15.10
2022-08-03T05:27:07.267Z,14.30
2022-08-03T05:28:06.967Z,12.10
2022-08-03T05:29:06.933Z,15.80
2022-08-03T05:30:31.202Z,10.60
2022-08-03T05:31:07.884Z,12.00
2022-08-03T05:32:08.417Z,12.80
2022-08-03T05:33:07.125Z,12.60
2022-08-03T05:34:06.894Z,9.40
2022-08-03T05:36:02.141Z,10.40
2022-08-03T05:36:07.843Z,8.90
2022-08-03T05:37:06.804Z,11.00
2022-08-03T05:38:06.916Z,10.20
2022-08-03T05:39:07.015Z,10.60
2022-08-03T05:40:06.794Z,11.80
2022-08-03T05:41:23.526Z,12.80
2022-08-03T05:42:07.755Z,8.60
2022-08-03T05:43:06.729Z,10.20
2022-08-03T05:44:06.753Z,11.10
2022-08-03T05:45:06.744Z,9.60
2022-08-03T05:46:12.352Z,8.20
2022-08-03T05:47:07.692Z,10.00
2022-08-03T05:48:06.722Z,9.20
2022-08-03T05:49:06.705Z,10.70
2022-08-03T05:50:06.688Z,11.10
2022-08-03T05:51:06.882Z,8.90
2022-08-03T05:52:11.702Z,11.30
2022-08-03T05:53:07.611Z,10.10
2022-08-03T05:54:06.632Z,9.90
2022-08-03T05:55:06.674Z,10.90
2022-08-03T05:56:14.277Z,11.10
2022-08-03T05:57:07.572Z,10.10
2022-08-03T05:58:06.544Z,9.20
2022-08-03T05:59:28.679Z,10.60
2022-08-03T06:00:07.602Z,11.40
2022-08-03T06:01:06.586Z,11.30
2022-08-03T06:02:06.509Z,8.70
2022-08-03T06:03:06.506Z,8.20
2022-08-03T06:04:06.482Z,10.10
2022-08-03T06:05:06.481Z,8.90
2022-08-03T06:06:06.671Z,8.60
2022-08-03T06:07:06.419Z,8.10
2022-08-03T06:08:06.419Z,8.80
2022-08-03T06:09:07.094Z,7.10
2022-08-03T06:10:34.084Z,7.20
2022-08-03T06:11:07.698Z,8.20
2022-08-03T06:12:06.398Z,7.20
2022-08-03T06:13:06.360Z,8.00
2022-08-03T06:14:06.356Z,8.50
2022-08-03T06:15:06.358Z,7.20
2022-08-03T06:16:07.755Z,9.30
2022-08-03T06:17:06.299Z,8.60
2022-08-03T06:18:06.289Z,7.00
2022-08-03T06:19:06.300Z,9.50
2022-08-03T06:20:06.291Z,8.30
2022-08-03T06:21:14.771Z,7.40
2022-08-03T06:22:07.229Z,9.00
2022-08-03T06:23:06.311Z,8.40
2022-08-03T06:24:06.317Z,7.40
2022-08-03T06:25:06.721Z,8.40
2022-08-03T06:26:06.198Z,6.80
2022-08-03T06:27:06.519Z,7.10
2022-08-03T06:28:07.635Z,7.80
2022-08-03T06:29:06.144Z,6.80
2022-08-03T06:30:06.198Z,7.30
2022-08-03T06:31:06.514Z,8.80
2022-08-03T06:32:06.126Z,8.10
2022-08-03T06:33:08.253Z,6.60
2022-08-03T06:34:34.303Z,8.60
2022-08-03T06:35:07.096Z,7.60
2022-08-03T06:36:06.091Z,8.10
2022-08-03T06:37:06.109Z,9.60
2022-08-03T06:38:06.038Z,10.80
2022-08-03T06:39:06.450Z,6.80
2022-08-03T06:40:06.030Z,8.90
2022-08-03T06:41:05.989Z,7.00
2022-08-03T06:42:05.990Z,6.00
2022-08-03T06:43:08.508Z,7.00
2022-08-03T06:44:06.989Z,6.70
2022-08-03T06:45:05.958Z,7.70
2022-08-03T06:46:05.930Z,6.80
2022-08-03T06:47:05.909Z,8.40
2022-08-03T06:48:05.922Z,7.20
2022-08-03T06:49:05.932Z,7.60
2022-08-03T06:50:16.313Z,6.70
2022-08-03T06:51:06.879Z,6.90
2022-08-03T06:52:07.061Z,7.40
2022-08-03T06:53:05.860Z,8.40
2022-08-03T06:54:13.985Z,8.50
2022-08-03T06:55:13.257Z,7.30
2022-08-03T06:56:13.881Z,7.10
2022-08-03T06:57:12.959Z,6.40
2022-08-03T06:58:14.082Z,8.20
2022-08-03T07:00:06.123Z,7.90
2022-08-03T07:00:13.042Z,6.00
2022-08-03T07:01:13.971Z,6.40
2022-08-03T07:02:12.869Z,9.50
2022-08-03T07:03:12.926Z,7.90
2022-08-03T07:04:05.726Z,7.00
2022-08-03T07:05:05.715Z,8.00
2022-08-03T07:06:06.025Z,7.60
2022-08-03T07:07:05.693Z,5.90
2022-08-03T07:08:05.737Z,7.50
2022-08-03T07:09:05.737Z,5.90
2022-08-03T07:10:05.646Z,6.00
2022-08-03T07:11:05.616Z,6.90
2022-08-03T07:12:05.918Z,9.80
2022-08-03T07:13:05.626Z,7.10
2022-08-03T07:14:05.614Z,7.50
2022-08-03T07:15:05.591Z,7.30
2022-08-03T07:16:06.353Z,8.10
2022-08-03T07:17:11.468Z,7.20
2022-08-03T07:18:06.566Z,6.50
2022-08-03T07:19:05.537Z,6.20
2022-08-03T07:20:05.566Z,7.40
2022-08-03T07:21:05.916Z,7.20
2022-08-03T07:22:05.562Z,6.80
2022-08-03T07:23:05.553Z,8.00
2022-08-03T07:24:05.498Z,6.50
2022-08-03T07:25:05.492Z,6.60
2022-08-03T07:26:05.458Z,6.10
2022-08-03T07:27:05.469Z,7.40
2022-08-03T07:28:05.416Z,6.60
2022-08-03T07:29:14.909Z,6.50
2022-08-03T07:30:06.397Z,7.50
2022-08-03T07:31:05.396Z,5.30
2022-08-03T07:32:05.919Z,8.90
2022-08-03T07:33:05.377Z,6.40
2022-08-03T07:34:05.341Z,7.30
2022-08-03T07:35:08.838Z,6.30
2022-08-03T07:36:06.379Z,8.10
2022-08-03T07:37:05.471Z,6.10
2022-08-03T07:38:05.987Z,6.20
2022-08-03T07:39:16.492Z,8.00
2022-08-03T07:40:06.281Z,5.60
2022-08-03T07:41:05.308Z,6.10
2022-08-03T07:42:05.259Z,6.40
2022-08-03T07:43:05.309Z,5.10
2022-08-03T07:44:05.898Z,5.90
2022-08-03T07:45:05.235Z,6.60
2022-08-03T07:46:05.203Z,6.10
2022-08-03T07:47:05.218Z,4.40
2022-08-03T07:48:08.828Z,5.90
2022-08-03T07:49:06.504Z,4.90
2022-08-03T07:50:05.189Z,8.30
2022-08-03T07:51:05.158Z,6.40
2022-08-03T07:52:05.147Z,6.80
2022-08-03T07:53:05.177Z,7.50
2022-08-03T07:54:05.330Z,6.20
2022-08-03T07:55:05.138Z,9.80
2022-08-03T07:56:05.762Z,6.30
2022-08-03T07:57:06.098Z,5.00
2022-08-03T07:58:05.084Z,6.10
2022-08-03T07:59:05.081Z,8.20
2022-08-03T08:00:05.076Z,5.40
2022-08-03T08:01:05.444Z,4.80
2022-08-03T08:02:05.027Z,18.50
2022-08-03T08:03:05.011Z,21.00
2022-08-03T08:04:05.049Z,16.50
2022-08-03T08:05:05.710Z,4.60
2022-08-03T08:06:04.969Z,6.60
2022-08-03T08:07:05.370Z,5.30
2022-08-03T08:08:04.959Z,6.10
2022-08-03T08:09:04.975Z,6.10
2022-08-03T08:10:04.938Z,5.50
2022-08-03T08:11:04.958Z,4.30
2022-08-03T08:12:04.906Z,5.10
2022-08-03T08:13:06.338Z,6.40
2022-08-03T08:14:04.885Z,6.40
2022-08-03T08:15:04.878Z,4.10
2022-08-03T08:16:04.858Z,4.10
2022-08-03T08:17:07.379Z,5.20
2022-08-03T08:18:04.848Z,6.60
2022-08-03T08:19:05.259Z,4.10
2022-08-03T08:20:04.805Z,4.90
2022-08-03T08:21:04.830Z,4.10
2022-08-03T08:22:05.041Z,7.10
2022-08-03T08:23:10.246Z,6.60
2022-08-03T08:24:10.733Z,7.30
2022-08-03T08:25:05.801Z,4.70
2022-08-03T08:26:04.748Z,5.50
2022-08-03T08:27:04.739Z,7.00
2022-08-03T08:28:30.709Z,11.30
2022-08-03T08:29:05.727Z,5.90
2022-08-03T08:30:11.531Z,6.40
2022-08-03T08:31:05.701Z,5.90
2022-08-03T08:32:04.688Z,5.90
2022-08-03T08:33:04.678Z,5.90
2022-08-03T08:34:04.931Z,4.90
2022-08-03T08:35:04.705Z,5.40
2022-08-03T08:36:04.948Z,6.80
2022-08-03T08:37:04.640Z,5.90
2022-08-03T08:38:05.702Z,8.10
2022-08-03T08:39:04.587Z,6.90
2022-08-03T08:40:04.590Z,6.00
2022-08-03T08:41:04.677Z,8.20
2022-08-03T08:42:05.478Z,4.90
2022-08-03T08:43:04.576Z,6.90
2022-08-03T08:44:04.589Z,6.40
2022-08-03T08:45:04.553Z,5.70
2022-08-03T08:46:04.535Z,7.00
2022-08-03T08:47:04.530Z,7.30
2022-08-03T08:48:08.249Z,7.20
2022-08-03T08:49:05.200Z,5.50
2022-08-03T08:50:10.229Z,6.50
2022-08-03T08:51:05.489Z,5.50
2022-08-03T08:52:04.455Z,6.00
2022-08-03T08:53:06.097Z,5.20
2022-08-03T08:54:04.467Z,6.40
2022-08-03T08:55:04.536Z,5.90
2022-08-03T08:56:04.426Z,4.20
2022-08-03T08:57:12.476Z,4.80
2022-08-03T08:58:05.377Z,4.80
2022-08-03T08:59:04.407Z,4.50
2022-08-03T09:00:04.409Z,3.90
2022-08-03T09:01:04.425Z,5.90
2022-08-03T09:02:04.387Z,6.80
2022-08-03T09:03:04.659Z,3.40
2022-08-03T09:04:04.335Z,6.20
2022-08-03T09:05:07.388Z,6.30
2022-08-03T09:06:04.297Z,4.20
2022-08-03T09:07:19.652Z,5.40
2022-08-03T09:08:05.665Z,4.00
2022-08-03T09:09:04.248Z,4.00
2022-08-03T09:10:12.495Z,3.60
2022-08-03T09:11:05.223Z,4.60
2022-08-03T09:12:21.105Z,2.70
2022-08-03T09:13:05.206Z,4.20
2022-08-03T09:14:04.539Z,2.40
2022-08-03T09:15:16.625Z,3.70
2022-08-03T09:16:05.412Z,3.60
2022-08-03T09:17:04.998Z,3.80
2022-08-03T09:18:04.627Z,4.20
2022-08-03T09:19:04.138Z,2.90
2022-08-03T09:20:04.177Z,2.00
2022-08-03T09:21:24.297Z,2.40
2022-08-03T09:22:09.047Z,5.30
2022-08-03T09:23:19.018Z,2.30
2022-08-03T09:24:07.253Z,2.70
2022-08-03T09:25:23.989Z,5.60
2022-08-03T09:26:05.087Z,3.30
2022-08-03T09:27:04.018Z,2.30
2022-08-03T09:28:04.119Z,3.00
2022-08-03T09:29:09.337Z,3.30
2022-08-03T09:30:05.698Z,2.30
2022-08-03T09:31:05.054Z,3.90
2022-08-03T09:32:03.979Z,2.70
2022-08-03T09:33:04.007Z,2.70
2022-08-03T09:34:03.919Z,2.80
2022-08-03T09:35:03.931Z,3.00
2022-08-03T09:36:04.339Z,4.20
2022-08-03T09:37:03.920Z,4.10
2022-08-03T09:38:13.449Z,3.30
2022-08-03T09:39:04.886Z,2.70
2022-08-03T09:40:03.929Z,3.30
2022-08-03T09:41:04.218Z,3.20
2022-08-03T09:42:07.416Z,4.10
2022-08-03T09:43:03.820Z,2.40
2022-08-03T09:44:03.798Z,5.30
2022-08-03T09:45:04.130Z,2.90
2022-08-03T09:46:03.798Z,4.20
2022-08-03T09:47:03.841Z,4.00
2022-08-03T09:48:03.777Z,2.20
2022-08-03T09:49:03.816Z,2.00
2022-08-03T09:50:05.184Z,2.30
2022-08-03T09:51:12.970Z,2.20
2022-08-03T09:52:33.115Z,3.40
2022-08-03T09:53:04.717Z,3.30
2022-08-03T09:54:03.690Z,2.80
2022-08-03T09:55:03.687Z,4.20
2022-08-03T09:56:33.720Z,4.40
2022-08-03T09:57:04.637Z,3.80
2022-08-03T09:58:03.628Z,4.70
2022-08-03T09:59:03.717Z,2.80
2022-08-03T10:00:07.989Z,2.70
2022-08-03T10:01:04.226Z,3.50
2022-08-03T10:02:03.589Z,2.60
2022-08-03T10:03:03.607Z,7.20
2022-08-03T10:04:04.922Z,3.10
2022-08-03T10:05:03.600Z,2.70
2022-08-03T10:06:03.547Z,2.50
2022-08-03T10:07:03.836Z,4.30
2022-08-03T10:08:03.508Z,5.40
2022-08-03T10:09:03.551Z,4.30
2022-08-03T10:10:30.445Z,2.80
2022-08-03T10:11:04.478Z,5.40
2022-08-03T10:12:03.868Z,2.70
2022-08-03T10:13:03.461Z,3.10
2022-08-03T10:14:03.448Z,2.50
2022-08-03T10:15:03.418Z,4.10
2022-08-03T10:16:23.785Z,3.40
2022-08-03T10:17:04.830Z,4.60
2022-08-03T10:18:04.289Z,3.70
2022-08-03T10:19:03.538Z,2.40
2022-08-03T10:20:03.376Z,3.70
2022-08-03T10:21:03.351Z,3.80
2022-08-03T10:22:03.343Z,5.40
2022-08-03T10:23:03.736Z,3.80
2022-08-03T10:24:03.470Z,2.30
2022-08-03T10:25:03.305Z,5.60
2022-08-03T10:26:03.269Z,2.50
2022-08-03T10:27:03.618Z,3.30
2022-08-03T10:28:03.267Z,3.70
2022-08-03T10:29:03.264Z,2.20
2022-08-03T10:30:03.826Z,4.50
2022-08-03T10:31:03.205Z,3.20
2022-08-03T10:32:03.188Z,2.40
2022-08-03T10:33:03.623Z,2.70
2022-08-03T10:34:04.239Z,2.30
2022-08-03T10:35:12.413Z,2.50
2022-08-03T10:36:04.159Z,2.00
2022-08-03T10:37:03.146Z,3.30
2022-08-03T10:38:03.133Z,2.20
2022-08-03T10:39:03.471Z,2.60
2022-08-03T10:40:04.094Z,2.00
2022-08-03T10:41:03.099Z,2.40
2022-08-03T10:42:03.087Z,3.20
2022-08-03T10:43:03.087Z,2.70
2022-08-03T10:44:03.069Z,4.40
2022-08-03T10:45:03.368Z,3.30
2022-08-03T10:46:03.029Z,3.60
2022-08-03T10:47:03.038Z,4.30
2022-08-03T10:48:03.006Z,2.30
2022-08-03T10:49:03.400Z,3.20
2022-08-03T10:50:02.967Z,4.20
2022-08-03T10:51:02.956Z,2.90
2022-08-03T10:52:10.452Z,3.90
2022-08-03T10:53:04.101Z,5.60
2022-08-03T10:54:03.307Z,2.80
2022-08-03T10:55:03.255Z,2.80
2022-08-03T10:56:03.266Z,4.30
2022-08-03T10:57:13.396Z,3.40
2022-08-03T10:58:07.949Z,2.50
2022-08-03T10:59:04.209Z,2.10
2022-08-03T11:00:02.862Z,2.50
2022-08-03T11:01:03.136Z,2.40
2022-08-03T11:02:02.835Z,2.00
2022-08-03T11:03:02.829Z,2.20
2022-08-03T11:04:06.137Z,3.00
2022-08-03T11:05:04.099Z,4.50
2022-08-03T11:06:02.830Z,2.60
2022-08-03T11:07:02.792Z,4.40
2022-08-03T11:08:02.759Z,2.60
2022-08-03T11:09:03.089Z,3.30
2022-08-03T11:10:04.697Z,3.30
2022-08-03T11:11:03.730Z,3.90
2022-08-03T11:12:02.719Z,13.40
2022-08-03T11:13:02.708Z,6.20
2022-08-03T11:14:02.689Z,2.80
2022-08-03T11:15:02.739Z,2.20
2022-08-03T11:16:05.862Z,2.40
2022-08-03T11:17:02.648Z,3.00
2022-08-03T11:18:02.657Z,2.00
2022-08-03T11:19:02.807Z,2.40
2022-08-03T11:20:02.702Z,2.50
2022-08-03T11:21:02.930Z,2.50
2022-08-03T11:22:02.620Z,6.40
2022-08-03T11:23:02.588Z,3.00
2022-08-03T11:24:06.324Z,3.50
2022-08-03T11:25:02.569Z,2.20
2022-08-03T11:26:02.578Z,4.10
2022-08-03T11:27:05.855Z,3.40
2022-08-03T11:28:02.520Z,2.10
2022-08-03T11:29:02.542Z,4.30
2022-08-03T11:30:02.505Z,2.70
2022-08-03T11:31:02.491Z,2.70
2022-08-03T11:32:02.455Z,4.00
2022-08-03T11:33:02.762Z,5.80
2022-08-03T11:34:02.449Z,2.10
2022-08-03T11:35:02.451Z,2.20
2022-08-03T11:36:02.442Z,3.00
2022-08-03T11:37:02.410Z,4.70
2022-08-03T11:38:04.965Z,3.10
2022-08-03T11:39:02.375Z,2.70
2022-08-03T11:40:02.843Z,2.00
2022-08-03T11:41:03.299Z,1.90
2022-08-03T11:42:02.340Z,2.10
2022-08-03T11:43:02.594Z,5.80
2022-08-03T11:44:02.316Z,3.60
2022-08-03T11:45:02.321Z,4.90
2022-08-03T11:46:02.283Z,3.80
2022-08-03T11:47:02.279Z,2.20
2022-08-03T11:48:02.469Z,3.70
2022-08-03T11:49:05.339Z,2.00
2022-08-03T11:50:03.310Z,2.20
2022-08-03T11:51:02.228Z,2.00
2022-08-03T11:52:02.238Z,2.90
2022-08-03T11:53:02.883Z,2.30
2022-08-03T11:54:02.397Z,2.10
2022-08-03T11:55:02.185Z,2.30
2022-08-03T11:56:02.177Z,2.10
2022-08-03T11:57:02.194Z,2.90
2022-08-03T11:59:03.415Z,2.40
2022-08-03T11:59:18.700Z,2.10
2022-08-03T12:00:03.138Z,3.40
2022-08-03T12:01:02.108Z,3.50
2022-08-03T12:02:02.109Z,2.40
2022-08-03T12:03:02.621Z,3.90
2022-08-03T12:04:02.528Z,2.80
2022-08-03T12:05:02.070Z,2.70
2022-08-03T12:06:02.119Z,4.40
2022-08-03T12:07:02.049Z,2.10
2022-08-03T12:08:04.071Z,1.80
2022-08-03T12:09:02.327Z,2.30
2022-08-03T12:10:02.089Z,2.20
2022-08-03T12:11:02.000Z,4.60
2022-08-03T12:12:02.009Z,2.10
2022-08-03T12:13:02.087Z,2.90
2022-08-03T12:14:44.959Z,2.80
2022-08-03T12:15:02.968Z,2.30
2022-08-03T12:16:09.090Z,3.40
2022-08-03T12:17:09.089Z,2.30
2022-08-03T12:18:11.013Z,3.40
2022-08-03T12:19:09.437Z,3.10
2022-08-03T12:20:09.001Z,5.10
2022-08-03T12:21:10.019Z,3.40
2022-08-03T12:22:11.032Z,2.30
2022-08-03T12:23:10.011Z,2.20
2022-08-03T12:24:09.261Z,3.10
2022-08-03T12:25:08.927Z,2.20
2022-08-03T12:26:09.938Z,3.10
2022-08-03T12:27:01.799Z,2.20
2022-08-03T12:28:01.810Z,2.60
2022-08-03T12:29:02.109Z,2.40
2022-08-03T12:30:01.884Z,2.70
2022-08-03T12:31:01.752Z,2.30
2022-08-03T12:32:01.720Z,2.00
2022-08-03T12:33:01.701Z,3.30
2022-08-03T12:34:01.698Z,4.00
2022-08-03T12:35:02.330Z,2.60
2022-08-03T12:36:01.709Z,2.00
2022-08-03T12:37:01.802Z,4.90
2022-08-03T12:38:01.639Z,2.50
2022-08-03T12:39:02.015Z,2.30
2022-08-03T12:40:06.454Z,3.10
2022-08-03T12:41:02.621Z,2.10
2022-08-03T12:42:01.597Z,3.70
2022-08-03T12:43:01.579Z,2.50
2022-08-03T12:44:01.589Z,2.60
2022-08-03T12:45:01.960Z,3.60
2022-08-03T12:46:01.592Z,2.90
2022-08-03T12:47:01.561Z,2.20
2022-08-03T12:48:01.588Z,2.80
2022-08-03T12:49:01.599Z,2.10
2022-08-03T12:50:01.509Z,3.50
2022-08-03T12:51:01.819Z,1.90
2022-08-03T12:52:06.888Z,3.50
2022-08-03T12:53:02.450Z,3.20
2022-08-03T12:54:01.476Z,2.20
2022-08-03T12:55:01.460Z,3.00
2022-08-03T12:56:05.897Z,3.10
2022-08-03T12:57:01.476Z,2.20
2022-08-03T12:58:01.468Z,2.30
2022-08-03T12:59:01.389Z,2.80
2022-08-03T13:00:01.389Z,3.10
2022-08-03T13:01:01.572Z,2.90
2022-08-03T13:02:01.405Z,2.00
2022-08-03T13:03:26.534Z,3.10
2022-08-03T13:04:02.349Z,2.80
2022-08-03T13:05:01.321Z,2.30
2022-08-03T13:06:01.722Z,4.90
2022-08-03T13:07:02.984Z,2.30
2022-08-03T13:08:01.271Z,3.10
2022-08-03T13:09:01.640Z,2.30
2022-08-03T13:10:06.245Z,3.30
2022-08-03T13:11:02.265Z,2.40
2022-08-03T13:12:02.463Z,4.10
2022-08-03T13:13:01.570Z,2.30
2022-08-03T13:14:01.327Z,3.10
2022-08-03T13:15:01.196Z,3.60
2022-08-03T13:16:01.199Z,2.40